createdAt,value
2022-11-30T00:02:25.602Z,24.5
2022-11-30T00:07:25.590Z,26.3
2022-11-30T00:12:25.486Z,23.3
2022-11-30T00:17:25.484Z,26.0
2022-11-30T00:22:25.484Z,25.6
2022-11-30T00:27:25.486Z,31.1
2022-11-30T00:32:25.579Z,25.9
2022-11-30T00:37:25.494Z,21.6
2022-11-30T00:42:25.496Z,24.8
2022-11-30T00:47:25.493Z,22.2
2022-11-30T00:52:25.503Z,23.3
2022-11-30T00:57:25.495Z,24.3
2022-11-30T01:07:25.583Z,19.2
2022-11-30T01:12:25.496Z,23.8
2022-11-30T01:17:25.509Z,22.5
2022-11-30T01:22:25.518Z,20.7
2022-11-30T01:27:25.510Z,20.7
2022-11-30T01:32:25.514Z,23.4
2022-11-30T01:37:25.514Z,22.3
2022-11-30T01:42:25.517Z,24.8
2022-11-30T01:47:25.512Z,25.2
2022-11-30T01:52:25.518Z,28.0
2022-11-30T01:57:25.525Z,25.0
2022-11-30T02:02:25.565Z,27.3
2022-11-30T02:07:25.706Z,25.5
2022-11-30T02:12:25.620Z,24.8
2022-11-30T02:17:25.524Z,26.1
2022-11-30T02:27:25.528Z,25.9
2022-11-30T02:32:25.529Z,26.3
2022-11-30T02:37:25.530Z,24.2
2022-11-30T02:42:25.531Z,26.2
2022-11-30T02:47:25.532Z,22.6
2022-11-30T02:52:25.605Z,23.6
2022-11-30T02:57:25.603Z,23.0
2022-11-30T03:02:25.633Z,22.2
2022-11-30T03:07:25.581Z,24.6
2022-11-30T03:12:25.536Z,22.6
2022-11-30T03:17:25.547Z,23.5
2022-11-30T03:22:25.546Z,25.4
2022-11-30T03:27:25.538Z,23.6
2022-11-30T03:37:25.551Z,24.4
2022-11-30T03:42:25.550Z,25.1
2022-11-30T03:47:25.564Z,24.9
2022-11-30T03:52:25.638Z,23.0
2022-11-30T03:57:25.575Z,22.8
2022-11-30T04:02:25.621Z,21.2
2022-11-30T04:07:25.586Z,23.1
2022-11-30T04:12:25.580Z,24.6
2022-11-30T04:17:25.556Z,23.7
2022-11-30T04:22:25.557Z,25.0
2022-11-30T04:27:25.562Z,25.1
2022-11-30T04:32:25.601Z,24.7
2022-11-30T04:37:25.562Z,21.3
2022-11-30T04:42:25.568Z,21.3
2022-11-30T04:47:25.568Z,23.9
2022-11-30T04:52:25.573Z,25.2
2022-11-30T04:57:25.565Z,23.4
2022-11-30T05:02:25.572Z,20.2
2022-11-30T05:07:25.620Z,20.9
2022-11-30T05:12:25.574Z,21.3
2022-11-30T05:17:25.581Z,21.8
2022-11-30T05:22:25.571Z,21.7
2022-11-30T05:27:25.582Z,22.9
2022-11-30T05:32:25.580Z,23.6
2022-11-30T05:37:25.877Z,21.0
2022-11-30T05:42:25.652Z,22.3
2022-11-30T05:47:25.656Z,20.4
2022-11-30T05:52:25.592Z,21.8
2022-11-30T05:57:25.588Z,21.4
2022-11-30T06:07:25.599Z,22.4
2022-11-30T06:12:25.588Z,22.4
2022-11-30T06:17:25.588Z,24.3
2022-11-30T06:22:25.591Z,22.8
2022-11-30T06:32:25.588Z,19.3
2022-11-30T06:37:25.605Z,23.9
2022-11-30T06:42:25.590Z,22.9
2022-11-30T06:47:25.601Z,19.9
2022-11-30T06:52:25.597Z,30.5
2022-11-30T06:57:25.608Z,28.2
2022-11-30T07:02:25.600Z,27.8
2022-11-30T07:07:25.665Z,21.2
2022-11-30T07:12:25.605Z,16.8
2022-11-30T07:17:25.604Z,16.5
2022-11-30T07:22:25.609Z,20.2
2022-11-30T07:27:25.609Z,16.7
2022-11-30T07:32:25.618Z,21.5
2022-11-30T07:37:25.615Z,18.0
2022-11-30T07:42:25.613Z,19.0
2022-11-30T07:47:25.620Z,17.9
2022-11-30T07:57:25.610Z,18.5
2022-11-30T08:02:26.001Z,18.6
2022-11-30T08:12:25.616Z,13.6
2022-11-30T08:17:25.622Z,16.0
2022-11-30T08:22:25.622Z,9.9
2022-11-30T08:27:25.624Z,10.3
2022-11-30T08:32:25.622Z,14.7
2022-11-30T08:37:25.812Z,15.7
2022-11-30T08:42:25.630Z,15.4
2022-11-30T08:52:25.987Z,21.5
2022-11-30T08:57:25.636Z,21.8
2022-11-30T09:02:25.743Z,24.0
2022-11-30T09:07:25.679Z,21.3
2022-11-30T09:12:25.632Z,21.6
2022-11-30T09:17:25.642Z,31.0
2022-11-30T09:22:25.641Z,31.6
2022-11-30T09:27:25.649Z,19.3
2022-11-30T09:32:25.646Z,24.3
2022-11-30T09:37:25.653Z,21.0
2022-11-30T09:42:25.662Z,20.2
2022-11-30T09:47:27.763Z,20.5
2022-11-30T09:52:25.652Z,23.0
2022-11-30T09:57:25.657Z,22.0
2022-11-30T10:02:25.812Z,23.1
2022-11-30T10:07:25.707Z,23.5
2022-11-30T10:12:25.660Z,23.1
2022-11-30T10:17:25.656Z,22.6
2022-11-30T10:27:25.669Z,24.8
2022-11-30T10:32:25.669Z,26.8
2022-11-30T10:37:25.661Z,28.4
2022-11-30T10:42:25.679Z,35.0
2022-11-30T10:47:25.681Z,32.7
2022-11-30T10:52:25.677Z,30.7
2022-11-30T10:57:25.682Z,34.1
2022-11-30T11:02:25.715Z,33.5
2022-11-30T11:07:25.866Z,32.7
2022-11-30T11:12:25.679Z,33.6
2022-11-30T11:17:25.704Z,33.1
2022-11-30T11:22:25.689Z,32.4
2022-11-30T11:27:25.689Z,32.6
2022-11-30T11:32:25.692Z,34.6
2022-11-30T11:37:25.690Z,33.5
2022-11-30T11:42:25.698Z,29.6
2022-11-30T11:47:25.697Z,30.4
2022-11-30T11:52:25.695Z,29.9
2022-11-30T11:57:25.698Z,27.4
2022-11-30T12:02:25.766Z,26.3
2022-11-30T12:07:25.730Z,25.5
2022-11-30T12:12:25.712Z,23.3
2022-11-30T12:17:25.698Z,21.0
2022-11-30T12:22:25.711Z,22.9
2022-11-30T12:27:25.705Z,24.4
2022-11-30T12:32:25.715Z,20.0
2022-11-30T12:37:25.712Z,17.9
2022-11-30T12:42:25.715Z,20.2
2022-11-30T12:47:25.723Z,17.2
2022-11-30T12:52:25.754Z,17.9
2022-11-30T12:57:25.717Z,17.5
2022-11-30T13:02:25.750Z,18.3
2022-11-30T13:07:25.798Z,18.5
2022-11-30T13:12:25.724Z,17.3
2022-11-30T13:17:25.728Z,16.4
2022-11-30T13:22:25.729Z,16.1
2022-11-30T13:27:25.724Z,19.6
2022-11-30T13:32:56.894Z,16.7
2022-11-30T13:37:27.495Z,17.8
2022-11-30T13:42:25.945Z,18.1
2022-11-30T13:47:25.740Z,17.1
2022-11-30T13:52:25.808Z,20.2
2022-11-30T13:57:25.737Z,17.3
2022-11-30T14:07:25.834Z,17.7
2022-11-30T14:12:25.761Z,19.5
2022-11-30T14:17:25.751Z,18.0
2022-11-30T14:22:25.749Z,19.4
2022-11-30T14:27:25.752Z,20.3
2022-11-30T14:32:25.750Z,18.8
2022-11-30T14:37:25.751Z,18.4
2022-11-30T14:42:25.758Z,9.9
2022-11-30T14:47:25.775Z,9.8
2022-11-30T14:52:25.763Z,11.2
2022-11-30T14:57:25.839Z,11.4
2022-11-30T15:02:25.865Z,13.6
2022-11-30T15:07:25.819Z,16.2
2022-11-30T15:12:25.765Z,14.0
2022-11-30T15:17:25.770Z,15.6
2022-11-30T15:22:25.771Z,14.5
2022-11-30T15:27:25.772Z,17.7
2022-11-30T15:32:25.765Z,19.6
2022-11-30T15:37:25.772Z,18.5
2022-11-30T15:42:25.770Z,17.0
2022-11-30T15:47:25.771Z,18.0
2022-11-30T15:52:25.771Z,14.0
2022-11-30T15:57:25.786Z,16.2
2022-11-30T16:02:25.864Z,17.2
2022-11-30T16:07:25.826Z,16.1
2022-11-30T16:12:25.780Z,18.4
2022-11-30T16:17:25.784Z,15.0
2022-11-30T16:22:25.788Z,15.0
2022-11-30T16:27:25.873Z,15.2
2022-11-30T16:32:25.797Z,16.3
2022-11-30T16:37:25.794Z,16.9
2022-11-30T16:42:25.849Z,15.9
2022-11-30T16:47:25.788Z,23.0
2022-11-30T16:52:25.787Z,24.2
2022-11-30T16:57:25.841Z,24.6
2022-11-30T17:02:25.839Z,23.4
2022-11-30T17:07:25.833Z,24.8
2022-11-30T17:12:25.819Z,23.3
2022-11-30T17:17:25.797Z,23.9
2022-11-30T17:22:25.798Z,22.9
2022-11-30T17:27:25.801Z,23.0
2022-11-30T17:32:25.803Z,22.9
2022-11-30T17:37:25.802Z,20.8
2022-11-30T17:42:25.806Z,21.7
2022-11-30T17:47:25.803Z,22.8
2022-11-30T17:52:25.805Z,21.3
2022-11-30T17:57:25.821Z,24.1
2022-11-30T18:02:25.843Z,25.4
2022-11-30T18:07:25.868Z,24.1
2022-11-30T18:12:25.808Z,25.5
2022-11-30T18:17:25.820Z,24.3
2022-11-30T18:22:25.816Z,24.4
2022-11-30T18:27:25.822Z,22.2
2022-11-30T18:32:25.823Z,26.4
2022-11-30T18:37:25.819Z,23.7
2022-11-30T18:42:25.846Z,22.0
2022-11-30T18:47:25.851Z,22.7
2022-11-30T18:52:25.833Z,23.0
2022-11-30T18:57:25.831Z,23.9
2022-11-30T19:02:25.929Z,26.7
2022-11-30T19:07:25.842Z,25.1
2022-11-30T19:12:25.835Z,25.8
2022-11-30T19:17:25.831Z,25.4
2022-11-30T19:22:25.833Z,27.9
2022-11-30T19:27:25.839Z,24.5
2022-11-30T19:32:25.838Z,26.5
2022-11-30T19:37:25.831Z,26.2
2022-11-30T19:42:25.841Z,26.9
2022-11-30T19:47:25.842Z,26.4
2022-11-30T19:52:25.846Z,29.4
2022-11-30T19:57:25.841Z,28.4
2022-11-30T20:02:26.030Z,27.8
2022-11-30T20:07:25.881Z,29.5
2022-11-30T20:12:25.852Z,28.6
2022-11-30T20:17:25.852Z,27.6
2022-11-30T20:22:25.991Z,29.3
2022-11-30T20:27:25.861Z,27.7
2022-11-30T20:37:25.857Z,29.7
2022-11-30T20:42:25.883Z,26.9
2022-11-30T20:47:25.861Z,32.2
2022-11-30T20:52:25.867Z,27.7
2022-11-30T20:57:25.864Z,30.2
2022-11-30T21:02:25.907Z,28.3
2022-11-30T21:07:25.917Z,32.5
2022-11-30T21:12:25.873Z,30.5
2022-11-30T21:17:25.873Z,32.5
2022-11-30T21:22:25.874Z,34.7
2022-11-30T21:27:25.870Z,37.4
2022-11-30T21:32:25.876Z,37.6
2022-11-30T21:37:25.878Z,36.4
2022-11-30T21:42:25.872Z,38.7
2022-11-30T21:47:25.875Z,41.6
2022-11-30T21:52:25.880Z,40.2
2022-11-30T21:57:25.881Z,40.3
2022-11-30T22:02:25.978Z,40.0
2022-11-30T22:07:25.978Z,40.3
2022-11-30T22:12:25.899Z,39.7
2022-11-30T22:17:25.893Z,42.8
2022-11-30T22:22:25.888Z,36.5
2022-11-30T22:27:25.924Z,41.3
2022-11-30T22:32:25.894Z,36.8
2022-11-30T22:37:25.892Z,37.3
2022-11-30T22:42:25.902Z,35.8
2022-11-30T22:47:25.897Z,40.6
2022-11-30T22:53:00.934Z,43.9
2022-11-30T22:57:25.900Z,43.9
2022-11-30T23:02:25.931Z,50.6
2022-11-30T23:07:31.736Z,53.6
2022-11-30T23:12:51.227Z,48.8
2022-11-30T23:17:25.910Z,57.6
2022-11-30T23:22:25.908Z,60.5
2022-11-30T23:32:25.985Z,53.5
2022-11-30T23:37:25.912Z,52.2
2022-11-30T23:42:25.918Z,52.2
2022-11-30T23:47:25.916Z,58.1
2022-11-30T23:52:25.912Z,52.3
2022-11-30T23:57:25.914Z,50.4
